Time;durP1;ratioP1;P1;durP2;ratioP2;P2;SDS_P1;SDS_P2;PMS_P1;PMS_P2;Temp;Humidity;BMP_temperature;BMP_pressure;BME280_temperature;BME280_humidity;BME280_pressure;Samples;Min_cycle;Max_cycle;Signal;HPM_P1;HPM_P2
2022/12/02 00:02:28;;;;;;;13.72;7.50;;;4.40;92.30;;;;;;1905271;75;20984;-50
2022/12/02 00:04:59;;;;;;;11.75;7.92;;;4.30;92.40;;;;;;1905373;75;20988;-53
2022/12/02 00:07:29;;;;;;;13.75;8.20;;;4.30;92.40;;;;;;1905405;75;21020;-52
2022/12/02 00:09:58;;;;;;;16.23;8.10;;;4.30;92.50;;;;;;1905240;74;21015;-52
2022/12/02 00:12:29;;;;;;;11.22;7.03;;;4.30;92.60;;;;;;1905251;75;21430;-50
2022/12/02 00:15:02;;;;;;;10.08;7.33;;;4.30;92.80;;;;;;1905329;75;21502;-49
2022/12/02 00:17:31;;;;;;;8.35;6.22;;;4.30;92.60;;;;;;1905254;75;21020;-51
2022/12/02 00:20:00;;;;;;;12.37;7.55;;;4.30;92.60;;;;;;1905228;75;21073;-53
2022/12/02 00:22:29;;;;;;;14.07;8.05;;;4.40;92.60;;;;;;1905219;75;21003;-49
2022/12/02 00:24:59;;;;;;;16.35;7.20;;;4.40;92.60;;;;;;1905234;75;20991;-51
2022/12/02 00:27:28;;;;;;;10.72;6.40;;;4.40;92.50;;;;;;1905353;75;21027;-52
2022/12/02 00:29:57;;;;;;;11.20;7.53;;;4.40;92.50;;;;;;1905362;75;21023;-52
2022/12/02 00:32:26;;;;;;;10.08;6.85;;;4.40;92.50;;;;;;1905203;75;21071;-53
2022/12/02 00:34:57;;;;;;;8.78;6.47;;;4.50;92.50;;;;;;1905151;74;21482;-53
2022/12/02 00:37:26;;;;;;;10.58;6.37;;;4.50;92.50;;;;;;1905460;74;21003;-54
2022/12/02 00:39:55;;;;;;;11.22;6.87;;;4.50;92.60;;;;;;1905230;75;20999;-53
2022/12/02 00:42:25;;;;;;;12.70;7.80;;;4.50;92.50;;;;;;1905219;75;21046;-53
2022/12/02 00:47:41;;;;;;;12.90;8.13;;;4.50;92.50;;;;;;1905455;75;21093;-53
2022/12/02 00:50:11;;;;;;;16.27;8.05;;;4.50;92.40;;;;;;1905325;75;20983;-53
2022/12/02 00:52:40;;;;;;;19.70;8.13;;;4.50;92.40;;;;;;1905518;75;21035;-51
2022/12/02 00:55:10;;;;;;;11.80;8.03;;;4.50;92.40;;;;;;1905444;74;21069;-52
2022/12/02 00:57:39;;;;;;;14.58;7.17;;;4.50;92.50;;;;;;1905342;74;21000;-51
2022/12/02 01:00:09;;;;;;;10.28;7.28;;;4.50;92.50;;;;;;1905315;75;21504;-51
2022/12/02 01:02:39;;;;;;;10.63;8.00;;;4.50;92.50;;;;;;1905415;75;21149;-52
2022/12/02 01:05:10;;;;;;;12.18;6.62;;;4.50;92.40;;;;;;1905430;75;21051;-51
2022/12/02 01:07:39;;;;;;;11.05;7.12;;;4.50;92.60;;;;;;1905324;74;21081;-52
2022/12/02 01:10:09;;;;;;;19.40;8.65;;;4.50;92.60;;;;;;1905425;75;21231;-51
2022/12/02 01:12:38;;;;;;;12.50;7.28;;;4.50;92.50;;;;;;1905360;75;21007;-50
2022/12/02 01:15:08;;;;;;;13.15;7.97;;;4.50;92.50;;;;;;1905354;75;21024;-50
2022/12/02 01:17:37;;;;;;;14.13;7.97;;;4.50;92.50;;;;;;1905392;74;21012;-52
2022/12/02 01:20:08;;;;;;;12.82;7.47;;;4.50;92.50;;;;;;1905324;75;21023;-50
2022/12/02 01:22:37;;;;;;;13.25;7.58;;;4.50;92.50;;;;;;1905451;75;21081;-48
2022/12/02 01:25:06;;;;;;;11.95;8.10;;;4.50;92.40;;;;;;1905367;74;21428;-50
2022/12/02 01:27:36;;;;;;;9.80;7.17;;;4.40;92.40;;;;;;1905499;75;21096;-52
2022/12/02 01:30:07;;;;;;;13.83;8.30;;;4.40;92.50;;;;;;1905416;74;21070;-52
2022/12/02 01:32:37;;;;;;;10.08;7.72;;;4.40;92.50;;;;;;1905451;75;21011;-50
2022/12/02 01:35:06;;;;;;;19.73;9.05;;;4.40;92.50;;;;;;1916878;74;21015;-51
2022/12/02 01:37:35;;;;;;;13.80;7.22;;;4.50;92.50;;;;;;1924785;74;21515;-51
2022/12/02 01:40:06;;;;;;;15.98;8.23;;;4.50;92.30;;;;;;1924785;74;21074;-51
2022/12/02 01:42:35;;;;;;;11.40;7.45;;;4.40;92.40;;;;;;1924793;74;20998;-51
2022/12/02 01:45:05;;;;;;;11.08;7.60;;;4.40;92.40;;;;;;1924779;74;21050;-51
2022/12/02 01:47:35;;;;;;;14.45;8.28;;;4.40;92.50;;;;;;1924832;74;21429;-52
2022/12/02 01:50:06;;;;;;;18.42;8.25;;;4.40;92.50;;;;;;1924908;74;21039;-51
2022/12/02 01:52:36;;;;;;;10.90;7.62;;;4.50;92.50;;;;;;1924794;74;20999;-51
2022/12/02 01:55:08;;;;;;;13.15;7.72;;;4.50;92.50;;;;;;1924810;74;21070;-52
2022/12/02 01:57:38;;;;;;;15.00;8.40;;;4.50;92.50;;;;;;1924778;74;21038;-50
2022/12/02 02:00:08;;;;;;;19.00;7.87;;;4.50;92.40;;;;;;1924705;74;21011;-50
2022/12/02 02:02:40;;;;;;;20.32;11.75;;;4.50;92.50;;;;;;1924704;73;21084;-51
2022/12/02 02:05:18;;;;;;;17.55;10.93;;;4.50;92.50;;;;;;1924720;74;21034;-49
2022/12/02 02:07:50;;;;;;;102.75;45.17;;;4.50;92.50;;;;;;1924686;74;21061;-52
2022/12/02 02:10:21;;;;;;;226.02;82.65;;;4.50;92.50;;;;;;1924693;74;21030;-52
2022/12/02 02:12:51;;;;;;;170.55;62.17;;;4.50;92.50;;;;;;1924802;74;21022;-51
2022/12/02 02:15:22;;;;;;;119.42;46.13;;;4.40;92.50;;;;;;1924858;74;21076;-51
2022/12/02 02:17:51;;;;;;;70.70;29.55;;;4.40;92.50;;;;;;1924854;74;21019;-50
2022/12/02 02:20:23;;;;;;;41.02;17.62;;;4.40;92.50;;;;;;1924699;74;20983;-51
2022/12/02 02:22:55;;;;;;;21.55;11.12;;;4.40;92.40;;;;;;1924640;74;21039;-48
2022/12/02 02:25:24;;;;;;;16.32;8.95;;;4.40;92.50;;;;;;1919209;74;21528;-51
2022/12/02 02:27:56;;;;;;;13.55;7.22;;;4.40;92.50;;;;;;1924740;74;21022;-51
2022/12/02 02:30:28;;;;;;;18.67;8.63;;;4.40;92.50;;;;;;1924731;74;21027;-51
2022/12/02 02:32:58;;;;;;;20.08;10.72;;;4.40;92.50;;;;;;1924644;74;21081;-51
2022/12/02 02:35:28;;;;;;;14.07;8.30;;;4.40;92.60;;;;;;1915086;74;21486;-50
2022/12/02 02:37:57;;;;;;;15.35;6.67;;;4.40;92.60;;;;;;1905346;75;21020;-50
2022/12/02 02:40:28;;;;;;;19.65;10.18;;;4.40;92.40;;;;;;1905305;75;21023;-50
2022/12/02 02:43:01;;;;;;;11.50;7.28;;;4.30;92.40;;;;;;1905210;74;21112;-48
2022/12/02 02:45:36;;;;;;;21.45;7.42;;;4.30;92.50;;;;;;1905292;75;21058;-49
2022/12/02 02:48:08;;;;;;;14.43;7.40;;;4.30;92.40;;;;;;1905385;75;21020;-49
2022/12/02 02:50:40;;;;;;;15.78;8.23;;;4.30;92.50;;;;;;1905326;74;21090;-50
2022/12/02 02:53:10;;;;;;;11.65;7.30;;;4.30;92.40;;;;;;1905278;75;21101;-51
2022/12/02 02:55:40;;;;;;;11.88;7.37;;;4.20;92.50;;;;;;1905297;75;21027;-50
2022/12/02 02:58:11;;;;;;;11.25;5.72;;;4.20;92.60;;;;;;1905358;75;21027;-50
2022/12/02 03:00:42;;;;;;;11.22;7.42;;;4.30;92.60;;;;;;1905429;75;21105;-52
2022/12/02 03:03:13;;;;;;;10.63;6.83;;;4.30;92.40;;;;;;1905262;75;21450;-51
2022/12/02 03:05:43;;;;;;;11.65;7.03;;;4.30;92.50;;;;;;1905303;75;21023;-52
2022/12/02 03:08:12;;;;;;;12.28;7.12;;;4.30;92.50;;;;;;1905383;75;21023;-50
2022/12/02 03:10:41;;;;;;;11.12;7.90;;;4.30;92.30;;;;;;1905267;75;21027;-51
2022/12/02 03:13:11;;;;;;;16.67;9.75;;;4.20;92.40;;;;;;1905171;75;21031;-50
2022/12/02 03:15:40;;;;;;;15.20;8.45;;;4.20;92.50;;;;;;1905304;75;21031;-52
2022/12/02 03:18:10;;;;;;;13.25;9.05;;;4.20;92.60;;;;;;1905329;74;20996;-50
2022/12/02 03:20:39;;;;;;;13.50;8.40;;;4.30;92.50;;;;;;1905434;75;21012;-50
2022/12/02 03:23:08;;;;;;;14.80;7.37;;;4.30;92.60;;;;;;1905211;74;21105;-51
2022/12/02 03:25:38;;;;;;;16.80;7.12;;;4.20;92.60;;;;;;1905367;75;21015;-51
2022/12/02 03:28:07;;;;;;;17.90;8.23;;;4.20;92.50;;;;;;1905311;74;21031;-50
2022/12/02 03:30:36;;;;;;;14.33;7.03;;;4.20;92.50;;;;;;1905385;75;21101;-52
2022/12/02 03:33:05;;;;;;;18.17;8.15;;;4.10;92.40;;;;;;1905337;75;21063;-50
2022/12/02 03:35:34;;;;;;;13.80;7.08;;;4.10;92.30;;;;;;1905272;75;21027;-50
2022/12/02 03:38:04;;;;;;;12.18;8.05;;;4.10;92.40;;;;;;1905375;75;21070;-51
2022/12/02 03:40:33;;;;;;;10.35;6.55;;;4.00;92.30;;;;;;1905272;75;21020;-51
2022/12/02 03:43:02;;;;;;;12.98;7.10;;;4.00;92.50;;;;;;1905326;75;20999;-51
2022/12/02 03:45:32;;;;;;;14.80;8.10;;;3.90;92.60;;;;;;1905360;75;21020;-52
2022/12/02 03:48:03;;;;;;;10.50;7.42;;;3.90;92.60;;;;;;1905307;75;21121;-52
2022/12/02 03:50:32;;;;;;;11.20;7.20;;;3.90;92.50;;;;;;1905342;75;21015;-48
2022/12/02 03:53:02;;;;;;;21.57;8.28;;;3.90;92.40;;;;;;1905080;74;21023;-53
2022/12/02 03:55:31;;;;;;;13.18;7.78;;;3.90;92.40;;;;;;1905324;75;21027;-49
2022/12/02 03:58:05;;;;;;;23.60;13.35;;;3.90;92.60;;;;;;1905139;75;21019;-52
2022/12/02 04:00:36;;;;;;;11.28;6.30;;;4.00;92.70;;;;;;1905253;75;21027;-51
2022/12/02 04:03:05;;;;;;;19.55;8.00;;;4.00;92.40;;;;;;1905298;75;21031;-48
2022/12/02 04:05:35;;;;;;;19.20;7.78;;;4.00;92.40;;;;;;1905172;75;21025;-52
2022/12/02 04:08:05;;;;;;;11.85;6.53;;;3.90;92.20;;;;;;1905167;75;21105;-51
2022/12/02 04:10:34;;;;;;;10.75;6.60;;;3.90;92.30;;;;;;1905189;74;21062;-52
2022/12/02 04:13:03;;;;;;;29.45;12.00;;;3.90;92.60;;;;;;1905105;75;21447;-50
2022/12/02 04:15:32;;;;;;;27.70;15.03;;;3.90;92.70;;;;;;1905290;75;21015;-50
2022/12/02 04:18:01;;;;;;;31.42;14.95;;;3.90;92.60;;;;;;1905231;75;21082;-50
2022/12/02 04:20:31;;;;;;;16.55;9.33;;;4.00;92.60;;;;;;1905211;75;21482;-51
2022/12/02 04:23:00;;;;;;;19.07;8.78;;;3.90;92.60;;;;;;1905211;75;21020;-49
2022/12/02 04:25:29;;;;;;;13.90;7.17;;;3.90;92.50;;;;;;1905232;74;21019;-52
2022/12/02 04:27:58;;;;;;;10.85;6.00;;;3.80;92.50;;;;;;1905158;75;21110;-52
2022/12/02 04:30:27;;;;;;;10.98;6.35;;;3.80;92.50;;;;;;1905340;74;21085;-51
2022/12/02 04:32:56;;;;;;;11.88;6.28;;;3.70;92.50;;;;;;1905239;75;21446;-50
2022/12/02 04:35:25;;;;;;;12.88;7.10;;;3.60;92.60;;;;;;1905115;75;21322;-49
2022/12/02 04:37:55;;;;;;;11.97;6.85;;;3.60;92.70;;;;;;1924040;74;21094;-50
2022/12/02 04:40:24;;;;;;;12.73;7.10;;;3.60;92.80;;;;;;1924558;74;21023;-52
2022/12/02 04:42:55;;;;;;;15.63;6.62;;;3.70;92.80;;;;;;1924576;74;21014;-48
2022/12/02 04:45:24;;;;;;;13.20;7.30;;;3.80;92.90;;;;;;1924590;74;21096;-49
2022/12/02 04:47:53;;;;;;;17.10;7.00;;;3.90;93.00;;;;;;1924695;74;21087;-51
2022/12/02 04:50:22;;;;;;;13.18;7.87;;;3.90;92.90;;;;;;1924605;74;21023;-52
2022/12/02 04:52:51;;;;;;;11.15;7.53;;;3.90;92.80;;;;;;1924477;74;21047;-50
2022/12/02 04:55:20;;;;;;;12.47;7.97;;;4.00;92.90;;;;;;1924668;74;20999;-51
2022/12/02 04:57:49;;;;;;;11.12;6.20;;;4.00;92.90;;;;;;1924619;74;20998;-51
2022/12/02 05:00:18;;;;;;;10.93;6.97;;;4.10;92.70;;;;;;1924562;74;21086;-52
2022/12/02 05:02:47;;;;;;;17.90;10.88;;;4.10;93.00;;;;;;1924653;74;21084;-51
2022/12/02 05:05:16;;;;;;;17.67;10.68;;;4.10;92.70;;;;;;1924514;74;21532;-51
2022/12/02 05:07:45;;;;;;;30.15;13.15;;;4.10;92.80;;;;;;1924501;74;21018;-51
2022/12/02 05:10:14;;;;;;;27.45;17.17;;;4.20;92.80;;;;;;1924556;74;21023;-50
2022/12/02 05:12:43;;;;;;;35.75;20.30;;;4.30;92.80;;;;;;1924491;74;21015;-51
2022/12/02 05:15:13;;;;;;;35.92;20.35;;;4.30;92.90;;;;;;1924688;74;21038;-52
2022/12/02 05:17:42;;;;;;;58.05;35.48;;;4.40;92.90;;;;;;1924522;74;21022;-50
2022/12/02 05:20:12;;;;;;;15.80;8.08;;;4.40;92.80;;;;;;1924604;74;20999;-52
2022/12/02 05:22:42;;;;;;;13.32;7.67;;;4.40;92.50;;;;;;1924546;74;21054;-52
2022/12/02 05:25:12;;;;;;;16.97;11.48;;;4.40;92.40;;;;;;1924550;74;21097;-49
2022/12/02 05:27:41;;;;;;;17.40;10.38;;;4.30;92.30;;;;;;1924521;74;21027;-52
2022/12/02 05:30:12;;;;;;;20.23;10.88;;;4.20;92.60;;;;;;1924534;74;21085;-53
2022/12/02 05:32:41;;;;;;;22.00;11.85;;;4.20;92.70;;;;;;1924427;74;21143;-51
2022/12/02 05:35:10;;;;;;;20.85;9.68;;;4.10;92.70;;;;;;1924512;74;21079;-50
2022/12/02 05:37:40;;;;;;;16.70;8.28;;;4.10;93.00;;;;;;1912892;74;21051;-52
2022/12/02 05:40:09;;;;;;;11.45;8.38;;;4.20;93.00;;;;;;1905268;75;21063;-52
2022/12/02 05:42:40;;;;;;;18.02;10.32;;;4.20;93.00;;;;;;1905234;75;21027;-52
2022/12/02 05:45:18;;;;;;;15.32;7.92;;;4.30;93.00;;;;;;1905260;75;21011;-52
2022/12/02 05:47:52;;;;;;;14.00;9.30;;;4.40;93.10;;;;;;1904687;74;21086;-53
2022/12/02 05:50:22;;;;;;;12.15;8.43;;;4.50;93.20;;;;;;1904920;74;21466;-53
2022/12/02 05:52:53;;;;;;;12.60;7.22;;;4.60;93.10;;;;;;1904785;74;21109;-53
2022/12/02 05:55:22;;;;;;;10.23;6.92;;;4.60;92.90;;;;;;1905242;74;21020;-53
2022/12/02 05:57:53;;;;;;;10.00;7.78;;;4.60;92.90;;;;;;1905250;75;21483;-53
2022/12/02 06:00:23;;;;;;;11.20;7.35;;;4.60;92.70;;;;;;1905377;75;21015;-53
2022/12/02 06:02:54;;;;;;;15.72;8.73;;;4.50;92.70;;;;;;1905184;75;21019;-52
2022/12/02 06:05:26;;;;;;;27.93;15.68;;;4.40;92.70;;;;;;1905133;75;21081;-52
2022/12/02 06:07:58;;;;;;;11.80;7.55;;;4.40;92.70;;;;;;1905104;75;21525;-52
2022/12/02 06:10:31;;;;;;;16.65;8.65;;;4.30;92.90;;;;;;1905193;75;21037;-52
2022/12/02 06:13:04;;;;;;;12.98;8.53;;;4.30;93.00;;;;;;1905241;74;21435;-53
2022/12/02 06:15:35;;;;;;;12.88;8.23;;;4.30;93.00;;;;;;1904311;74;21532;-52
2022/12/02 06:18:13;;;;;;;14.33;9.98;;;4.40;93.10;;;;;;1905187;74;21069;-53
2022/12/02 06:20:44;;;;;;;17.55;8.35;;;4.40;93.00;;;;;;1901177;75;21039;-51
2022/12/02 06:23:16;;;;;;;12.40;7.90;;;4.50;93.00;;;;;;1905239;75;21015;-53
2022/12/02 06:25:46;;;;;;;14.30;6.62;;;4.50;93.00;;;;;;1905236;75;21003;-52
2022/12/02 06:28:33;;;;;;;14.95;7.90;;;4.60;93.10;;;;;;1905210;74;21019;-52
2022/12/02 06:31:20;;;;;;;13.35;7.80;;;4.60;93.10;;;;;;1905231;74;21045;-53
2022/12/02 06:33:51;;;;;;;11.88;7.78;;;4.60;93.10;;;;;;1905299;75;21000;-53
2022/12/02 06:36:22;;;;;;;14.13;9.30;;;4.60;93.00;;;;;;1905221;74;21000;-51
2022/12/02 06:39:00;;;;;;;13.98;8.93;;;4.60;93.00;;;;;;1905153;74;21047;-53
2022/12/02 06:41:32;;;;;;;15.58;9.05;;;4.70;93.10;;;;;;1905232;74;21095;-53
2022/12/02 06:46:51;;;;;;;12.78;7.50;;;4.80;93.10;;;;;;1905311;75;21097;-52
2022/12/02 06:49:22;;;;;;;14.35;7.37;;;4.90;93.10;;;;;;1905359;75;21016;-52
2022/12/02 06:51:59;;;;;;;14.15;8.68;;;4.90;92.70;;;;;;1905193;75;21090;-50
2022/12/02 06:54:31;;;;;;;14.00;6.97;;;4.80;92.80;;;;;;1905294;75;21031;-49
2022/12/02 06:57:02;;;;;;;12.70;7.75;;;4.70;92.80;;;;;;1905250;75;21031;-52
2022/12/02 06:59:32;;;;;;;10.80;7.28;;;4.70;92.80;;;;;;1905483;75;21021;-50
2022/12/02 07:02:02;;;;;;;10.70;7.42;;;4.60;93.00;;;;;;1905339;75;21020;-52
2022/12/02 07:04:40;;;;;;;9.68;7.08;;;4.60;93.10;;;;;;1905364;75;21035;-50
2022/12/02 07:07:29;;;;;;;13.35;7.45;;;4.60;93.20;;;;;;1905113;74;21434;-50
2022/12/02 07:10:06;;;;;;;13.00;8.75;;;4.70;93.20;;;;;;1905250;74;21466;-50
2022/12/02 07:12:43;;;;;;;12.63;7.70;;;4.70;93.50;;;;;;1904905;75;21556;-56
2022/12/02 07:15:17;;;;;;;11.78;7.42;;;4.90;93.30;;;;;;1904336;75;21055;-56
2022/12/02 07:17:46;;;;;;;;;;;5.00;93.30;;;;;;1896847;75;21185;-56
2022/12/02 07:20:36;;;;;;;11.68;7.40;;;5.10;93.20;;;;;;1895767;75;20152;-57
2022/12/02 07:23:26;;;;;;;13.90;7.95;;;5.10;93.10;;;;;;1904925;75;21075;-56
2022/12/02 07:26:00;;;;;;;15.68;8.53;;;5.10;93.10;;;;;;1905064;75;21020;-56
2022/12/02 07:28:35;;;;;;;20.63;10.00;;;5.10;93.10;;;;;;1891505;75;21009;-56
2022/12/02 07:31:09;;;;;;;13.75;7.78;;;5.00;93.10;;;;;;1872607;76;21050;-56
2022/12/02 07:33:39;;;;;;;25.12;11.75;;;5.10;93.20;;;;;;1872694;76;21114;-57
2022/12/02 07:36:08;;;;;;;17.75;10.30;;;5.00;93.10;;;;;;1872685;76;21027;-57
2022/12/02 07:38:37;;;;;;;13.08;7.83;;;5.00;93.10;;;;;;1882128;75;21061;-57
2022/12/02 07:41:07;;;;;;;19.62;10.18;;;5.00;93.40;;;;;;1891408;76;21058;-56
2022/12/02 07:43:38;;;;;;;13.43;8.13;;;5.00;93.40;;;;;;1891149;75;21552;-56
2022/12/02 07:46:07;;;;;;;20.40;10.23;;;5.10;93.40;;;;;;1891467;76;21461;-57
2022/12/02 07:48:36;;;;;;;16.25;8.90;;;5.10;93.40;;;;;;1891318;75;21092;-57
2022/12/02 07:51:05;;;;;;;16.25;8.88;;;5.20;93.40;;;;;;1891496;76;21084;-56
2022/12/02 07:53:34;;;;;;;12.15;9.93;;;5.30;93.50;;;;;;1890956;76;21042;-57
2022/12/02 07:56:04;;;;;;;15.45;8.48;;;5.40;93.40;;;;;;1891228;76;21004;-57
2022/12/02 07:58:33;;;;;;;12.53;8.28;;;5.40;93.20;;;;;;1890068;74;21129;-56
2022/12/02 08:01:02;;;;;;;12.90;8.90;;;5.50;93.40;;;;;;1923126;74;21077;-57
2022/12/02 08:03:31;;;;;;;14.40;9.40;;;5.50;93.40;;;;;;1904843;74;21032;-56
2022/12/02 08:06:00;;;;;;;18.07;8.35;;;5.60;93.60;;;;;;1904792;74;21101;-56
2022/12/02 08:08:29;;;;;;;46.90;26.97;;;5.70;93.40;;;;;;1906814;74;21516;-57
2022/12/02 08:13:22;;;;;;;11.73;8.03;;;5.70;93.00;;;;;;1940888;73;27320;-58
2022/12/02 10:11:49;;;;;;;5.37;3.20;;;5.30;93.00;;;;;;1957747;73;26291;-49
2022/12/02 10:14:18;;;;;;;11.08;6.00;;;5.30;93.20;;;;;;1917458;73;21047;-56
2022/12/02 10:16:48;;;;;;;9.50;4.47;;;5.30;93.40;;;;;;1917906;75;21098;-58
2022/12/02 10:19:18;;;;;;;7.05;3.77;;;5.30;93.10;;;;;;1917560;74;21066;-57
2022/12/02 10:21:48;;;;;;;8.15;5.20;;;5.30;93.10;;;;;;1917553;75;21112;-56
2022/12/02 10:24:19;;;;;;;11.08;6.05;;;5.30;93.10;;;;;;1917499;75;21066;-57
2022/12/02 10:26:51;;;;;;;7.58;5.03;;;5.30;93.10;;;;;;1915198;74;21066;-57
2022/12/02 10:29:29;;;;;;;10.43;6.40;;;5.30;93.10;;;;;;1917757;74;21090;-56
2022/12/02 10:32:00;;;;;;;10.93;5.92;;;5.30;93.30;;;;;;1917436;75;21497;-58
2022/12/02 10:34:30;;;;;;;6.92;4.78;;;5.30;93.40;;;;;;1917682;75;21015;-57
2022/12/02 10:37:19;;;;;;;13.25;8.73;;;5.30;93.40;;;;;;1917671;75;21078;-55
2022/12/02 10:39:48;;;;;;;13.72;7.85;;;5.20;93.40;;;;;;1917181;74;21035;-51
2022/12/02 10:42:20;;;;;;;14.45;7.75;;;5.30;93.60;;;;;;1917556;75;20995;-52
2022/12/02 10:44:51;;;;;;;11.30;7.30;;;5.30;93.60;;;;;;1917726;75;21043;-55
2022/12/02 10:47:23;;;;;;;11.35;7.22;;;5.30;93.70;;;;;;1912059;74;21594;-56
2022/12/02 10:49:57;;;;;;;13.45;5.28;;;5.30;93.90;;;;;;1917582;75;21621;-56
2022/12/02 10:52:28;;;;;;;11.95;6.12;;;5.40;93.70;;;;;;1917553;75;21054;-56
2022/12/02 10:54:58;;;;;;;10.10;6.10;;;5.30;93.70;;;;;;1917671;73;21065;-48
2022/12/02 10:57:30;;;;;;;7.10;5.90;;;5.40;93.80;;;;;;1917543;75;21152;-48
2022/12/02 11:00:01;;;;;;;11.57;6.90;;;5.40;94.00;;;;;;1915190;75;21133;-52
2022/12/02 11:02:44;;;;;;;11.53;8.65;;;5.40;93.80;;;;;;1916238;75;21082;-49
2022/12/02 11:05:17;;;;;;;12.90;7.47;;;5.50;93.80;;;;;;1917067;73;21159;-48
2022/12/02 11:07:58;;;;;;;11.48;7.42;;;5.50;93.70;;;;;;1916574;74;21062;-53
2022/12/02 11:10:31;;;;;;;18.77;5.28;;;5.60;93.70;;;;;;1918777;74;21089;-56
2022/12/02 11:13:03;;;;;;;7.12;5.58;;;5.70;95.80;;;;;;1922604;74;21191;-55
2022/12/02 11:15:47;;;;;;;7.53;5.65;;;6.00;94.90;;;;;;1924534;74;21078;-55
2022/12/02 11:18:40;;;;;;;11.00;6.17;;;6.10;93.90;;;;;;1924583;74;21015;-54
2022/12/02 11:21:14;;;;;;;9.60;5.58;;;6.10;93.60;;;;;;1924652;74;21120;-53
2022/12/02 11:23:43;;;;;;;;;;;6.00;93.60;;;;;;1926989;74;21164;-52
2022/12/02 11:26:14;;;;;;;9.68;4.65;;;5.90;93.70;;;;;;1924166;74;20137;-51
2022/12/02 11:29:07;;;;;;;11.93;5.65;;;5.90;93.70;;;;;;1924098;74;21148;-49
2022/12/02 11:31:37;;;;;;;8.50;5.05;;;5.80;93.60;;;;;;1898868;75;21212;-52
2022/12/02 11:34:08;;;;;;;10.10;4.25;;;5.70;93.80;;;;;;1916376;74;21019;-51
2022/12/02 11:36:37;;;;;;;8.90;4.97;;;5.70;93.80;;;;;;1921989;74;21078;-51
2022/12/02 11:39:11;;;;;;;8.63;4.75;;;5.70;93.90;;;;;;1923965;74;21027;-54
2022/12/02 11:41:51;;;;;;;9.20;5.25;;;5.60;93.90;;;;;;1924144;74;21046;-52
2022/12/02 11:44:25;;;;;;;12.47;5.53;;;5.60;93.90;;;;;;1924148;74;21441;-48
2022/12/02 11:46:56;;;;;;;10.77;5.67;;;5.60;93.90;;;;;;1924273;74;21465;-59
2022/12/02 11:49:35;;;;;;;10.72;6.22;;;5.60;94.00;;;;;;1923875;74;21129;-58
2022/12/02 11:52:15;;;;;;;10.50;6.08;;;5.60;94.00;;;;;;1923888;74;21168;-60
2022/12/02 11:54:42;;;;;;;12.47;6.85;;;5.70;94.10;;;;;;1922595;74;21129;-58
2022/12/02 11:57:29;;;;;;;11.12;6.85;;;5.80;94.10;;;;;;1924097;74;21789;-58
2022/12/02 11:59:59;;;;;;;9.90;6.90;;;5.80;94.00;;;;;;1924008;74;20991;-57
2022/12/02 12:02:28;;;;;;;7.75;5.58;;;5.90;94.00;;;;;;1924007;74;20995;-57
2022/12/02 12:05:03;;;;;;;9.75;5.80;;;5.90;93.90;;;;;;1924047;74;21084;-59
2022/12/02 12:07:42;;;;;;;10.98;6.62;;;5.90;93.80;;;;;;1923401;74;21070;-56
2022/12/02 12:10:35;;;;;;;9.15;6.10;;;5.90;93.90;;;;;;1924018;74;21062;-59
2022/12/02 12:13:12;;;;;;;9.65;5.97;;;5.90;93.80;;;;;;1923957;74;21023;-57
2022/12/02 12:15:59;;;;;;;9.30;5.85;;;5.90;94.00;;;;;;1907393;74;21179;-71
2022/12/02 12:18:39;;;;;;;12.73;5.47;;;5.90;94.00;;;;;;1923587;74;21100;-61
2022/12/02 12:21:09;;;;;;;11.12;6.15;;;5.90;94.00;;;;;;1923169;74;21251;-66
2022/12/02 12:23:41;;;;;;;10.72;6.10;;;5.90;94.20;;;;;;1924111;74;21465;-48
2022/12/02 12:26:30;;;;;;;10.68;6.80;;;5.90;93.90;;;;;;1924206;74;21019;-67
2022/12/02 12:29:16;;;;;;;11.97;6.12;;;5.90;93.80;;;;;;1924221;74;21509;-57
2022/12/02 12:31:46;;;;;;;13.20;6.50;;;5.90;94.00;;;;;;1924150;74;21090;-57
2022/12/02 12:34:15;;;;;;;11.08;6.15;;;5.80;94.00;;;;;;1924798;74;21015;-57
2022/12/02 12:36:50;;;;;;;10.30;5.90;;;5.80;94.00;;;;;;1924811;74;21157;-66
2022/12/02 12:39:19;;;;;;;7.67;5.43;;;5.80;94.10;;;;;;1925167;74;21146;-57
2022/12/02 12:41:48;;;;;;;8.43;5.55;;;5.80;94.20;;;;;;1924753;74;21078;-56
2022/12/02 12:44:17;;;;;;;9.70;5.80;;;5.70;94.30;;;;;;1924966;74;21236;-56
2022/12/02 12:46:47;;;;;;;13.72;6.45;;;5.70;94.30;;;;;;1924835;74;21054;-57
2022/12/02 12:49:16;;;;;;;9.08;5.92;;;5.70;94.20;;;;;;1924789;74;21034;-61
